createdAt,value
2022-08-26T00:01:55.171Z,99.90
2022-08-26T00:04:25.633Z,99.90
2022-08-26T00:06:54.482Z,99.90
2022-08-26T00:09:22.157Z,99.90
2022-08-26T00:11:49.345Z,99.90
2022-08-26T00:14:18.011Z,99.90
2022-08-26T00:16:48.145Z,99.90
2022-08-26T00:19:18.435Z,99.90
2022-08-26T00:21:45.811Z,99.90
2022-08-26T00:24:13.435Z,99.90
2022-08-26T00:26:41.383Z,99.90
2022-08-26T00:29:09.381Z,99.90
2022-08-26T00:31:36.756Z,99.90
2022-08-26T00:34:04.326Z,99.90
2022-08-26T00:36:32.050Z,99.90
2022-08-26T00:38:59.462Z,99.90
2022-08-26T00:41:26.749Z,99.90
2022-08-26T00:43:54.483Z,99.90
2022-08-26T00:46:29.258Z,99.90
2022-08-26T00:49:04.169Z,99.90
2022-08-26T00:51:45.867Z,99.90
2022-08-26T00:54:14.939Z,99.90
2022-08-26T00:56:55.113Z,99.90
2022-08-26T00:59:23.072Z,99.90
2022-08-26T01:01:50.369Z,99.90
2022-08-26T01:04:21.206Z,99.90
2022-08-26T01:06:51.140Z,99.90
2022-08-26T01:09:19.380Z,99.90
2022-08-26T01:11:49.009Z,99.90
2022-08-26T01:14:16.892Z,99.90
2022-08-26T01:16:48.761Z,99.90
2022-08-26T01:19:32.100Z,99.90
2022-08-26T01:22:22.985Z,99.90
2022-08-26T01:24:56.524Z,99.90
2022-08-26T01:27:25.150Z,99.90
2022-08-26T01:29:52.946Z,99.90
2022-08-26T01:32:23.328Z,99.90
2022-08-26T01:34:50.976Z,99.90
2022-08-26T01:37:29.343Z,99.90
2022-08-26T01:39:57.970Z,99.90
2022-08-26T01:42:27.509Z,99.90
2022-08-26T01:45:04.966Z,99.90
2022-08-26T01:47:35.873Z,99.90
2022-08-26T01:50:07.999Z,99.90
2022-08-26T01:52:38.292Z,99.90
2022-08-26T01:55:06.024Z,99.90
2022-08-26T01:57:35.228Z,99.90
2022-08-26T02:02:31.744Z,99.90
2022-08-26T02:05:03.669Z,99.90
2022-08-26T02:17:35.146Z,99.90
2022-08-26T02:20:03.507Z,99.90
2022-08-26T02:22:31.651Z,99.90
2022-08-26T02:25:26.968Z,99.90
2022-08-26T02:52:46.047Z,99.90
2022-08-26T03:05:07.910Z,99.90
2022-08-26T03:07:34.865Z,99.90
2022-08-26T03:10:01.894Z,99.90
2022-08-26T03:12:37.178Z,99.90
2022-08-26T05:09:29.481Z,99.90
2022-08-26T05:14:24.799Z,99.90
2022-08-26T05:16:52.038Z,99.90
2022-08-26T05:19:19.588Z,99.90
2022-08-26T05:21:48.687Z,99.90
2022-08-26T05:49:02.435Z,99.90
2022-08-26T05:51:30.993Z,99.90
2022-08-26T05:53:58.632Z,99.90
2022-08-26T05:56:27.676Z,99.90
2022-08-26T05:58:56.537Z,99.90
2022-08-26T06:01:28.517Z,99.90
2022-08-26T06:04:01.292Z,99.90
2022-08-26T06:06:34.652Z,99.90
2022-08-26T06:09:04.831Z,99.90
2022-08-26T06:11:33.480Z,99.90
2022-08-26T06:14:05.404Z,99.90
2022-08-26T06:16:35.176Z,99.90
2022-08-26T06:19:10.623Z,99.90
2022-08-26T06:21:40.349Z,99.90
2022-08-26T06:24:29.251Z,99.90
2022-08-26T06:27:03.365Z,99.90
2022-08-26T06:29:33.857Z,99.90
2022-08-26T06:32:02.781Z,99.90
2022-08-26T06:34:30.448Z,99.90
2022-08-26T06:36:59.894Z,99.90
2022-08-26T06:39:30.786Z,99.90
2022-08-26T06:41:59.351Z,99.90
2022-08-26T06:44:27.298Z,99.90
2022-08-26T06:46:54.632Z,99.90
2022-08-26T06:49:26.702Z,99.90
2022-08-26T06:51:55.506Z,99.90
2022-08-26T06:54:22.485Z,99.90
2022-08-26T06:56:49.845Z,99.90
2022-08-26T06:59:16.774Z,99.90
2022-08-26T07:01:45.298Z,99.90
2022-08-26T07:04:15.460Z,99.90
2022-08-26T07:06:49.427Z,99.90
2022-08-26T07:09:16.940Z,99.90
2022-08-26T07:11:45.031Z,99.90
2022-08-26T07:14:13.130Z,99.90
2022-08-26T07:16:41.337Z,99.90
2022-08-26T07:19:11.001Z,99.90
2022-08-26T07:21:40.430Z,99.90
2022-08-26T07:24:08.615Z,99.90
2022-08-26T07:26:38.708Z,99.90
2022-08-26T07:29:06.951Z,99.90
2022-08-26T07:31:39.241Z,99.90
2022-08-26T07:34:10.961Z,99.90
2022-08-26T07:36:38.057Z,99.90
2022-08-26T07:39:06.072Z,99.90
2022-08-26T07:41:33.702Z,99.90
2022-08-26T07:53:53.362Z,99.90
2022-08-26T07:56:21.922Z,99.90
2022-08-26T07:58:51.882Z,99.90
2022-08-26T08:01:24.526Z,99.90
2022-08-26T08:03:54.246Z,99.90
2022-08-26T08:08:55.565Z,99.90
2022-08-26T08:11:23.738Z,99.90
2022-08-26T08:13:55.945Z,99.90
2022-08-26T08:16:26.011Z,99.90
2022-08-26T08:18:53.553Z,99.90
2022-08-26T08:21:24.086Z,98.80
2022-08-26T08:23:53.297Z,96.00
2022-08-26T08:26:20.791Z,91.80
2022-08-26T08:28:48.208Z,96.90
2022-08-26T08:31:56.142Z,97.60
2022-08-26T08:34:15.408Z,92.20
2022-08-26T08:36:42.367Z,94.90
2022-08-26T08:39:09.675Z,91.90
2022-08-26T08:41:48.839Z,92.60
2022-08-26T08:44:21.287Z,92.30
2022-08-26T08:46:59.779Z,92.60
2022-08-26T08:49:28.428Z,93.50
2022-08-26T08:52:25.575Z,95.20
2022-08-26T08:54:55.652Z,97.30
2022-08-26T08:57:36.460Z,99.90
2022-08-26T09:00:12.275Z,94.80
2022-08-26T09:02:58.049Z,99.90
2022-08-26T09:05:34.043Z,95.50
2022-08-26T09:08:25.185Z,94.80
2022-08-26T09:11:01.080Z,95.70
2022-08-26T09:13:29.243Z,96.70
2022-08-26T09:16:24.163Z,95.50
2022-08-26T09:18:54.585Z,95.20
2022-08-26T09:21:23.962Z,99.10
2022-08-26T09:23:56.675Z,99.20
2022-08-26T09:26:48.123Z,99.90
2022-08-26T09:29:34.411Z,98.50
2022-08-26T09:32:16.569Z,99.90
2022-08-26T09:35:06.306Z,99.90
2022-08-26T09:40:27.320Z,99.90
2022-08-26T09:43:22.408Z,99.90
2022-08-26T09:45:59.080Z,96.80
2022-08-26T09:48:37.922Z,99.90
2022-08-26T09:51:35.565Z,99.90
2022-08-26T09:54:05.813Z,97.70
2022-08-26T09:56:39.193Z,98.60
2022-08-26T09:59:11.305Z,96.00
2022-08-26T10:01:42.809Z,95.90
2022-08-26T10:04:20.881Z,94.40
2022-08-26T10:07:03.880Z,94.50
2022-08-26T10:09:36.114Z,95.40
2022-08-26T10:12:10.152Z,94.50
2022-08-26T10:17:21.073Z,94.30
2022-08-26T10:20:01.468Z,97.00
2022-08-26T10:22:49.787Z,94.00
2022-08-26T10:25:24.795Z,97.20
2022-08-26T10:28:06.122Z,97.50
2022-08-26T10:30:40.714Z,95.80
2022-08-26T10:33:13.121Z,93.40
2022-08-26T10:35:51.463Z,90.90
2022-08-26T10:38:23.355Z,92.30
2022-08-26T10:41:00.678Z,94.30
2022-08-26T10:43:32.365Z,93.50
2022-08-26T10:46:12.302Z,93.90
2022-08-26T10:48:59.931Z,92.90
2022-08-26T10:51:36.640Z,93.30
2022-08-26T10:54:09.967Z,89.00
2022-08-26T10:57:02.845Z,86.10
2022-08-26T11:00:24.991Z,91.40
2022-08-26T11:03:21.954Z,88.30
2022-08-26T11:06:18.452Z,93.90
2022-08-26T11:09:06.762Z,92.00
2022-08-26T11:11:42.880Z,91.50
2022-08-26T11:14:11.983Z,91.10
2022-08-26T11:16:45.811Z,89.60
2022-08-26T11:19:56.723Z,87.60
2022-08-26T11:22:31.769Z,82.00
2022-08-26T11:24:58.940Z,72.40
2022-08-26T11:27:26.312Z,73.90
2022-08-26T11:30:10.836Z,69.10
2022-08-26T11:32:38.216Z,72.70
2022-08-26T11:35:05.967Z,70.10
2022-08-26T11:37:47.814Z,73.50
2022-08-26T11:40:17.292Z,76.70
2022-08-26T11:42:55.689Z,74.90
2022-08-26T11:45:37.723Z,72.90
2022-08-26T11:48:16.999Z,78.70
2022-08-26T11:50:54.980Z,74.10
2022-08-26T11:53:23.004Z,69.90
2022-08-26T11:55:52.714Z,64.80
2022-08-26T11:58:22.556Z,67.80
2022-08-26T12:00:58.080Z,71.20
2022-08-26T12:03:42.215Z,75.60
2022-08-26T12:06:37.464Z,71.10
2022-08-26T12:09:21.853Z,69.80
2022-08-26T12:11:48.835Z,66.40
2022-08-26T12:14:27.693Z,66.50
2022-08-26T12:16:55.265Z,67.30
2022-08-26T12:19:33.459Z,66.60
2022-08-26T12:22:20.943Z,68.60
2022-08-26T12:24:54.889Z,69.30
2022-08-26T12:27:33.513Z,69.50
2022-08-26T12:30:01.211Z,70.80
2022-08-26T12:32:31.357Z,70.90
2022-08-26T12:37:37.507Z,69.10
2022-08-26T12:40:31.189Z,68.00
2022-08-26T12:43:00.834Z,75.00
2022-08-26T12:45:37.541Z,72.40
2022-08-26T12:48:10.369Z,69.60
2022-08-26T12:50:44.256Z,70.60
2022-08-26T12:53:11.214Z,74.70
2022-08-26T12:55:38.171Z,71.00
2022-08-26T12:58:20.012Z,76.50
2022-08-26T13:00:48.637Z,75.50
2022-08-26T13:03:29.402Z,70.80
2022-08-26T13:06:20.916Z,71.00
2022-08-26T13:08:59.209Z,71.60
2022-08-26T13:11:26.142Z,73.80
2022-08-26T13:14:00.564Z,72.70
2022-08-26T13:16:29.280Z,66.70
2022-08-26T13:19:02.574Z,66.20
2022-08-26T13:21:37.737Z,71.00
2022-08-26T13:24:09.389Z,68.90
2022-08-26T13:26:36.381Z,71.70
2022-08-26T13:29:07.206Z,67.40
2022-08-26T13:31:38.783Z,65.60
2022-08-26T13:34:05.922Z,69.00
2022-08-26T13:36:32.926Z,68.10
2022-08-26T13:39:00.153Z,71.80
2022-08-26T13:41:29.466Z,78.10
2022-08-26T13:43:59.773Z,78.90
2022-08-26T13:46:28.423Z,73.40
2022-08-26T13:48:57.665Z,76.60
2022-08-26T13:51:25.281Z,73.40
2022-08-26T13:53:54.801Z,78.30
2022-08-26T13:56:23.094Z,74.80
2022-08-26T13:58:50.375Z,75.30
2022-08-26T14:01:19.395Z,79.10
2022-08-26T14:03:46.587Z,75.80
2022-08-26T14:06:14.068Z,76.20
2022-08-26T14:08:42.159Z,83.30
2022-08-26T14:11:09.931Z,80.10
2022-08-26T14:13:37.088Z,82.60
2022-08-26T14:16:07.774Z,85.20
2022-08-26T14:18:41.805Z,79.90
2022-08-26T14:21:12.801Z,80.70
2022-08-26T14:23:40.791Z,85.00
2022-08-26T14:26:11.962Z,80.40
2022-08-26T14:28:59.008Z,83.00
2022-08-26T14:31:27.514Z,78.80
2022-08-26T14:34:01.098Z,75.70
2022-08-26T14:36:28.217Z,76.70
2022-08-26T14:38:56.896Z,79.70
2022-08-26T14:41:28.274Z,79.10
2022-08-26T14:44:01.350Z,75.30
2022-08-26T14:46:31.821Z,71.90
2022-08-26T14:49:04.381Z,70.90
2022-08-26T14:51:33.249Z,74.90
2022-08-26T14:54:12.429Z,70.50
2022-08-26T14:56:48.725Z,71.90
2022-08-26T14:59:26.996Z,80.20
2022-08-26T15:01:55.138Z,78.60
2022-08-26T15:04:23.568Z,80.30
2022-08-26T15:06:52.156Z,82.20
2022-08-26T15:09:19.287Z,86.00
2022-08-26T15:11:47.695Z,85.90
2022-08-26T15:14:19.914Z,81.60
2022-08-26T15:16:52.555Z,80.50
2022-08-26T15:19:20.482Z,85.10
2022-08-26T15:21:47.971Z,83.30
2022-08-26T15:24:18.748Z,87.60
2022-08-26T15:26:47.549Z,91.50
2022-08-26T15:29:15.842Z,92.30
2022-08-26T15:31:43.170Z,90.00
2022-08-26T15:34:15.958Z,90.80
2022-08-26T15:36:45.991Z,93.70
2022-08-26T15:39:14.677Z,92.60
2022-08-26T15:41:41.663Z,93.80
2022-08-26T15:44:09.675Z,95.10
2022-08-26T15:46:37.697Z,94.10
2022-08-26T15:49:07.123Z,94.40
2022-08-26T15:51:45.879Z,96.70
2022-08-26T15:54:17.844Z,97.50
2022-08-26T15:56:47.920Z,98.70
2022-08-26T15:59:17.338Z,98.20
2022-08-26T16:01:44.782Z,99.90
2022-08-26T16:04:12.487Z,99.90
2022-08-26T16:06:41.261Z,99.90
2022-08-26T16:09:08.762Z,99.90
2022-08-26T16:11:37.428Z,99.90
2022-08-26T16:14:05.351Z,99.90
2022-08-26T16:16:32.698Z,99.90
2022-08-26T16:19:00.603Z,99.90
2022-08-26T16:21:30.782Z,99.90
2022-08-26T16:23:58.754Z,99.90
2022-08-26T16:26:29.122Z,99.90
2022-08-26T16:28:56.126Z,99.90
2022-08-26T16:31:23.132Z,99.90
2022-08-26T16:33:50.119Z,99.90
2022-08-26T16:36:17.910Z,99.90
2022-08-26T16:38:53.481Z,99.90
2022-08-26T16:41:20.873Z,99.90
2022-08-26T16:43:47.905Z,99.90
2022-08-26T16:46:16.322Z,99.90
2022-08-26T16:48:44.147Z,99.90
2022-08-26T16:51:17.694Z,99.90
2022-08-26T16:53:45.804Z,99.90
2022-08-26T16:56:27.651Z,99.90
2022-08-26T16:59:06.260Z,99.90
2022-08-26T17:01:33.422Z,99.90
2022-08-26T17:04:00.509Z,99.90
2022-08-26T17:06:27.464Z,99.90
2022-08-26T17:08:54.449Z,99.90
2022-08-26T17:11:21.448Z,99.90
2022-08-26T17:13:48.578Z,99.90
2022-08-26T17:16:16.116Z,99.90
2022-08-26T17:18:43.238Z,99.90
2022-08-26T17:21:13.416Z,99.90
2022-08-26T17:23:42.505Z,99.90
2022-08-26T17:26:10.895Z,99.90
2022-08-26T17:28:38.243Z,99.90
2022-08-26T17:36:01.562Z,99.90
2022-08-26T17:38:30.192Z,99.90
2022-08-26T18:23:28.878Z,99.90
2022-08-26T18:40:49.456Z,99.90
2022-08-26T18:43:16.420Z,99.90
2022-08-26T18:45:43.377Z,99.90
2022-08-26T18:58:06.256Z,99.90
2022-08-26T19:47:53.066Z,99.90
2022-08-26T19:50:21.656Z,99.90
2022-08-26T19:52:48.727Z,99.90
2022-08-26T19:55:20.875Z,99.90
2022-08-26T19:57:48.094Z,99.90
2022-08-26T20:00:18.104Z,99.90
2022-08-26T20:02:45.128Z,99.90
2022-08-26T20:05:14.165Z,99.90
2022-08-26T20:07:41.722Z,99.90
2022-08-26T20:10:12.970Z,99.90
2022-08-26T20:12:41.789Z,99.90
2022-08-26T20:15:11.112Z,99.90
2022-08-26T20:17:38.865Z,99.90
2022-08-26T20:20:33.735Z,99.90
2022-08-26T20:23:03.722Z,99.90
2022-08-26T20:25:32.708Z,99.90
2022-08-26T20:28:00.473Z,99.90
2022-08-26T20:30:27.552Z,99.90
2022-08-26T20:32:54.800Z,99.90
2022-08-26T20:35:23.965Z,99.90
2022-08-26T20:37:51.002Z,99.90
2022-08-26T20:40:19.223Z,99.90
2022-08-26T20:42:46.225Z,99.90
2022-08-26T20:45:13.322Z,99.90
2022-08-26T20:47:41.816Z,99.90
2022-08-26T20:50:09.121Z,99.90
2022-08-26T20:52:36.089Z,99.90
2022-08-26T20:55:03.327Z,99.90
2022-08-26T20:57:30.706Z,99.90
2022-08-26T20:59:57.718Z,99.90
2022-08-26T21:02:25.987Z,99.90
2022-08-26T21:04:53.671Z,99.90
2022-08-26T21:07:20.912Z,99.90
2022-08-26T21:09:49.268Z,99.90
2022-08-26T21:12:18.626Z,99.90
2022-08-26T21:14:49.627Z,99.90
2022-08-26T21:17:17.948Z,99.90
2022-08-26T21:19:44.888Z,99.90
2022-08-26T21:22:13.939Z,99.90
2022-08-26T21:27:08.274Z,99.90
2022-08-26T21:29:37.143Z,99.90
2022-08-26T21:34:32.843Z,99.90
2022-08-26T21:36:59.886Z,99.90
2022-08-26T21:39:26.862Z,99.90
2022-08-26T21:41:54.005Z,99.90
2022-08-26T21:44:21.732Z,99.90
2022-08-26T21:46:49.191Z,99.90
2022-08-26T21:49:16.941Z,99.90
2022-08-26T21:54:13.465Z,99.90
2022-08-26T21:56:44.680Z,99.90
2022-08-26T21:59:12.864Z,99.90
2022-08-26T22:01:39.951Z,99.90
2022-08-26T22:04:08.758Z,99.90
2022-08-26T22:06:43.064Z,99.90
2022-08-26T22:09:10.610Z,99.90
2022-08-26T22:11:37.774Z,99.90
2022-08-26T22:14:04.901Z,99.90
2022-08-26T22:16:31.931Z,99.90
2022-08-26T22:18:58.946Z,99.90
2022-08-26T22:21:28.458Z,99.90
2022-08-26T22:23:58.324Z,99.90
2022-08-26T22:26:30.817Z,99.90
2022-08-26T22:29:00.478Z,99.90
2022-08-26T22:31:38.367Z,99.90
2022-08-26T22:34:13.277Z,99.90
2022-08-26T22:36:43.859Z,99.90
2022-08-26T22:39:16.929Z,99.90
2022-08-26T22:41:45.131Z,99.90
2022-08-26T22:44:12.627Z,99.90
2022-08-26T22:49:10.685Z,99.90
2022-08-26T22:51:38.019Z,99.90
2022-08-26T22:54:06.339Z,99.90
2022-08-26T22:56:34.851Z,99.90
2022-08-26T22:59:01.926Z,99.90
2022-08-26T23:01:28.996Z,99.90
2022-08-26T23:03:56.044Z,99.90
2022-08-26T23:06:23.103Z,99.90
2022-08-26T23:08:50.124Z,99.90
2022-08-26T23:11:17.532Z,99.90
2022-08-26T23:13:44.542Z,99.90
2022-08-26T23:16:13.333Z,99.90
2022-08-26T23:18:41.311Z,99.90
2022-08-26T23:21:08.935Z,99.90
2022-08-26T23:23:36.732Z,99.90
2022-08-26T23:26:06.320Z,99.90
2022-08-26T23:28:34.668Z,99.90
2022-08-26T23:31:01.924Z,99.90
2022-08-26T23:33:49.424Z,99.90
2022-08-26T23:36:18.445Z,99.90
2022-08-26T23:38:52.654Z,99.90
2022-08-26T23:41:24.513Z,99.90
2022-08-26T23:43:51.754Z,99.90
2022-08-26T23:46:19.765Z,99.90
2022-08-26T23:48:47.109Z,99.90
2022-08-26T23:51:32.659Z,99.90
2022-08-26T23:53:59.900Z,99.90
2022-08-26T23:56:27.027Z,99.90
2022-08-26T23:58:54.801Z,99.90
